Campo, CO

10:30 PM MDT on October 24, 2014 (GMT -0600)
Clayton Municipal | Change Station
CLOSE
Current Station
Airport
Location: Clayton,
Elevation: 4970 ft
Nearby Weather Stations

Elev 4970 ft 36.45 °N, 103.15 °W | Updated 35 minutes ago

Clear
Clear
63 °F
Feels Like 63 °F
N
8
Wind Variable Wind from WSW

Today
High -- | Low -- °F
--% Chance of Precip.
Yesterday
High -- | Low -- °F
Precip. -- in
7:06 AM 6:01 PM
New Moon, 2% visible
Pressure 30.04 in
Visibility 10.0 miles
Clouds Clear
Dew Point 31 °F
Humidity 30%
Rainfall 0.00 in
Snow Depth Not available.
UV 0 out of 12
Pollen 2.70 out of 12
Air Quality Not available.
Flu Activity Sporadic
METAR KCAO 250355Z AUTO 24007KT 10SM CLR 17/M01 A3021 RMK AO2 SLP170 T01721006

More Conditions Fewer Conditions

Pressure 30.04 in
Visibility 10.0 miles
Clouds Clear
Dew Point 31 °F
Humidity 30%
Rainfall 0.00 in
Snow Depth Not available.
UV 0 out of 12
Pollen 2.70 out of 12
Air Quality Not available.
Flu Activity Sporadic
METAR KCAO 250355Z AUTO 24007KT 10SM CLR 17/M01 A3021 RMK AO2 SLP170 T01721006

More Conditions Fewer Conditions

10-Day Weather Forecast

Almanac

Astronomy

Oct. 24, 2014 Rise Set
Actual Time 7:06 AM MDT 6:01 PM MDT
Civil Twilight 6:40 AM MDT 6:28 PM MDT
Nautical Twilight 6:09 AM MDT 6:58 PM MDT
Astronomical Twilight 5:39 AM MDT 7:28 PM MDT
Moon 7:47 AM MDT (10/24) 6:44 PM MDT (10/24)
Length of Visible Light 11h 48m
Length of Day
10h 55m
Tomorrow will be 2m 11s shorter.
New Moon, 2% of the Moon is Illuminated
Oct 25
New Moon
Oct 30
First Quarter
Nov 6
Full
Nov 14
Last Quarter
Nov 22
New

Yesterday's Extremes

State Highs State Lows

Community

WunderPhotos

Upload Photos

1,764,782 photos uploaded!

Nearby

Snow Depth

Station Depth Elevation
Apishapa 0 in 10000 ft
Culebra #2 0 in 10500 ft
Trinchera 1 in 10860 ft
Ute Creek 0 in 10650 ft
Medano Pass 1 in 9620 ft

Earthquake Activity

City Distance Mag. Time & Date
No recent earthquake activity has been reported nearby.
Minimum magnitude displayed is 2.5.

Coastal Water Temperatures

Place Temperature
No Stations Reporting

Nearby Weather Stations